Time;durP1;ratioP1;P1;durP2;ratioP2;P2;SDS_P1;SDS_P2;PMS_P1;PMS_P2;Temp;Humidity;BMP_temperature;BMP_pressure;BME280_temperature;BME280_humidity;BME280_pressure;Samples;Min_cycle;Max_cycle;Signal;HPM_P1;HPM_P2
2022/03/24 00:02:51;;;;;;;7.97;4.93;;;5.50;48.30;;;;;;6259856;28;20299;-64
2022/03/24 00:05:53;;;;;;;9.03;5.23;;;5.40;48.60;;;;;;6243138;28;20194;-64
2022/03/24 00:08:54;;;;;;;8.20;4.43;;;5.40;48.60;;;;;;6276297;28;20235;-64
2022/03/24 00:11:55;;;;;;;6.03;4.63;;;5.40;48.90;;;;;;6226841;28;20546;-63
2022/03/24 00:14:56;;;;;;;6.90;4.77;;;5.40;48.90;;;;;;6245801;28;20196;-63
2022/03/24 00:17:57;;;;;;;7.30;4.83;;;5.40;49.00;;;;;;6222033;28;20200;-63
2022/03/24 00:20:58;;;;;;;6.67;4.43;;;5.30;49.10;;;;;;6276132;28;20197;-63
2022/03/24 00:23:59;;;;;;;6.13;4.43;;;5.40;49.20;;;;;;6263376;28;20198;-63
2022/03/24 00:26:59;;;;;;;7.27;4.87;;;5.50;48.70;;;;;;6202467;28;20247;-63
2022/03/24 00:30:03;;;;;;;8.93;5.40;;;5.50;47.70;;;;;;6246545;28;20218;-63
2022/03/24 00:33:05;;;;;;;6.20;4.43;;;5.50;48.80;;;;;;6270197;28;20196;-63
2022/03/24 00:36:09;;;;;;;6.33;4.63;;;5.40;49.10;;;;;;6275683;28;20188;-63
2022/03/24 00:39:10;;;;;;;10.13;4.47;;;5.30;49.40;;;;;;6255618;28;20219;-65
2022/03/24 00:42:11;;;;;;;6.50;4.70;;;5.30;49.70;;;;;;6275709;28;20190;-65
2022/03/24 00:45:12;;;;;;;5.20;3.93;;;5.30;49.90;;;;;;6275930;28;20271;-65
2022/03/24 00:48:13;;;;;;;8.40;5.70;;;5.20;50.10;;;;;;6258640;28;20572;-65
2022/03/24 00:51:15;;;;;;;5.20;4.23;;;5.10;49.90;;;;;;6271233;28;20203;-65
2022/03/24 00:54:18;;;;;;;5.23;4.37;;;5.10;49.90;;;;;;6234629;28;20186;-65
2022/03/24 00:57:19;;;;;;;6.17;4.47;;;5.10;50.00;;;;;;6250477;28;20206;-65
2022/03/24 01:00:25;;;;;;;8.33;4.57;;;5.10;49.60;;;;;;6250684;28;20198;-65
2022/03/24 01:03:25;;;;;;;7.53;4.70;;;5.10;50.00;;;;;;6253364;28;20209;-65
2022/03/24 01:06:26;;;;;;;6.37;4.50;;;5.00;50.40;;;;;;6275145;28;20200;-65
2022/03/24 01:09:27;;;;;;;4.70;4.20;;;4.90;50.60;;;;;;6253250;28;20229;-65
2022/03/24 01:12:28;;;;;;;6.83;4.87;;;4.90;51.40;;;;;;6266631;28;20190;-65
2022/03/24 01:15:30;;;;;;;6.20;4.37;;;4.80;51.50;;;;;;6239186;28;20193;-65
2022/03/24 01:18:34;;;;;;;6.93;4.40;;;4.80;51.40;;;;;;6265500;28;20194;-65
2022/03/24 01:21:38;;;;;;;6.00;4.77;;;4.80;51.50;;;;;;6249318;28;20194;-65
2022/03/24 01:24:39;;;;;;;8.43;4.37;;;4.70;51.50;;;;;;6266525;28;20209;-65
2022/03/24 01:27:40;;;;;;;7.23;4.97;;;4.70;51.70;;;;;;6294774;28;20240;-63
2022/03/24 01:30:41;;;;;;;6.20;4.90;;;4.70;51.60;;;;;;6289421;28;20276;-63
2022/03/24 01:33:42;;;;;;;7.03;4.67;;;4.60;51.70;;;;;;6298282;28;20188;-63
2022/03/24 01:36:43;;;;;;;6.87;4.60;;;4.60;52.00;;;;;;6257935;28;20183;-63
2022/03/24 01:39:45;;;;;;;6.07;4.23;;;4.50;52.10;;;;;;6265790;28;20197;-63
2022/03/24 01:42:46;;;;;;;5.53;4.33;;;4.50;52.20;;;;;;6268281;28;20192;-63
2022/03/24 01:45:49;;;;;;;5.87;4.47;;;4.50;52.60;;;;;;6281808;28;20201;-63
2022/03/24 01:48:50;;;;;;;6.63;4.50;;;4.40;52.60;;;;;;6315453;28;20300;-64
2022/03/24 01:51:51;;;;;;;6.03;4.47;;;4.40;52.50;;;;;;6289343;28;20186;-63
2022/03/24 01:54:55;;;;;;;5.97;4.70;;;4.30;52.80;;;;;;6257603;28;20193;-63
2022/03/24 01:57:56;;;;;;;5.57;4.17;;;4.40;52.30;;;;;;6273925;28;20222;-64
2022/03/24 02:01:27;;;;;;;9.37;4.93;;;4.30;52.70;;;;;;6264943;28;20196;-63
2022/03/24 02:04:30;;;;;;;8.27;5.10;;;4.30;52.90;;;;;;6298480;28;20184;-64
2022/03/24 02:07:32;;;;;;;10.00;4.40;;;4.30;52.90;;;;;;6277050;28;20221;-63
2022/03/24 02:10:35;;;;;;;5.83;4.83;;;4.30;52.70;;;;;;6256996;28;20210;-64
2022/03/24 02:13:35;;;;;;;6.83;4.90;;;4.30;52.80;;;;;;6260591;28;20189;-64
2022/03/24 02:16:38;;;;;;;7.37;4.93;;;4.20;53.20;;;;;;6256987;28;20216;-63
2022/03/24 02:19:40;;;;;;;7.37;5.33;;;4.10;53.40;;;;;;6281330;28;20272;-64
2022/03/24 02:22:41;;;;;;;6.23;4.63;;;4.10;53.70;;;;;;6281601;28;20242;-64
2022/03/24 02:25:43;;;;;;;12.53;5.47;;;4.20;53.90;;;;;;6281833;28;20189;-64
2022/03/24 02:28:45;;;;;;;9.27;4.70;;;4.10;54.20;;;;;;6257905;28;20237;-64
2022/03/24 02:31:48;;;;;;;7.63;4.80;;;4.10;54.20;;;;;;6249457;28;20186;-64
2022/03/24 02:34:49;;;;;;;8.17;5.23;;;4.00;54.40;;;;;;6258185;28;20284;-64
2022/03/24 02:37:50;;;;;;;7.13;4.07;;;4.00;54.60;;;;;;6240164;28;20199;-64
2022/03/24 02:40:51;;;;;;;7.07;4.33;;;3.90;54.40;;;;;;6239607;28;20192;-64
2022/03/24 02:43:52;;;;;;;7.40;4.87;;;3.90;54.60;;;;;;6223463;28;20190;-63
2022/03/24 02:46:54;;;;;;;7.20;4.40;;;4.00;54.30;;;;;;6223839;28;20193;-63
2022/03/24 02:49:56;;;;;;;10.03;4.07;;;4.10;53.40;;;;;;6250386;28;20217;-63
2022/03/24 02:52:58;;;;;;;9.20;4.40;;;4.00;53.30;;;;;;6236703;28;20201;-63
2022/03/24 02:55:59;;;;;;;6.33;4.70;;;4.00;53.70;;;;;;6234855;28;20222;-63
2022/03/24 02:59:00;;;;;;;6.03;4.53;;;4.10;53.30;;;;;;6231204;28;20200;-63
2022/03/24 03:02:13;;;;;;;5.20;3.87;;;4.00;53.40;;;;;;6232230;28;20184;-65
2022/03/24 03:05:14;;;;;;;7.73;4.13;;;4.10;53.30;;;;;;6302582;28;20196;-64
2022/03/24 03:08:15;;;;;;;4.87;4.10;;;4.10;53.70;;;;;;6262850;28;20289;-64
2022/03/24 03:11:23;;;;;;;5.93;4.13;;;4.00;53.80;;;;;;6227795;28;20193;-63
2022/03/24 03:14:24;;;;;;;6.40;4.17;;;3.90;53.70;;;;;;6261122;28;20181;-63
2022/03/24 03:17:25;;;;;;;5.67;4.20;;;4.00;53.30;;;;;;6277796;28;20248;-65
2022/03/24 03:20:26;;;;;;;6.90;4.10;;;4.00;53.70;;;;;;6225155;28;20189;-64
2022/03/24 03:23:27;;;;;;;6.87;4.50;;;3.90;54.10;;;;;;6203540;28;20211;-64
2022/03/24 03:26:27;;;;;;;7.80;5.00;;;3.90;54.20;;;;;;6269242;28;20233;-64
2022/03/24 03:29:28;;;;;;;9.80;4.70;;;3.80;54.10;;;;;;6264862;28;20224;-64
2022/03/24 03:32:29;;;;;;;6.93;3.97;;;3.80;54.70;;;;;;6252173;28;20193;-64
2022/03/24 03:35:30;;;;;;;6.63;4.90;;;3.80;54.30;;;;;;6277220;28;20196;-64
2022/03/24 03:38:32;;;;;;;7.13;3.87;;;3.60;54.90;;;;;;6252211;28;20192;-64
2022/03/24 03:41:34;;;;;;;7.97;5.10;;;3.60;55.10;;;;;;6305840;28;20200;-64
2022/03/24 03:44:35;;;;;;;5.63;4.37;;;3.60;55.20;;;;;;6319799;28;20190;-63
2022/03/24 03:47:36;;;;;;;5.93;3.83;;;3.60;55.00;;;;;;6298158;28;20234;-64
2022/03/24 03:50:37;;;;;;;9.07;4.70;;;3.60;55.30;;;;;;6286633;28;20191;-64
2022/03/24 03:53:39;;;;;;;5.17;4.10;;;3.60;55.00;;;;;;6322446;28;20195;-64
2022/03/24 03:56:40;;;;;;;7.90;4.50;;;3.60;55.20;;;;;;6319514;28;20195;-64
2022/03/24 03:59:41;;;;;;;4.33;3.50;;;3.60;54.90;;;;;;6296172;28;20196;-64
2022/03/24 04:02:42;;;;;;;5.67;4.03;;;3.70;55.00;;;;;;6286446;28;20258;-64
2022/03/24 04:05:43;;;;;;;6.87;3.90;;;3.60;55.40;;;;;;6309518;28;20199;-62
2022/03/24 04:08:44;;;;;;;7.97;4.10;;;3.60;54.20;;;;;;6297409;28;20228;-63
2022/03/24 04:11:46;;;;;;;8.53;3.50;;;3.80;53.40;;;;;;6304256;28;20190;-63
2022/03/24 04:14:47;;;;;;;5.67;3.67;;;3.80;53.20;;;;;;6313312;28;20197;-63
2022/03/24 04:17:50;;;;;;;4.93;3.43;;;3.90;52.70;;;;;;6292702;28;20268;-63
2022/03/24 04:20:51;;;;;;;4.53;3.37;;;3.90;52.70;;;;;;6326144;28;20191;-63
2022/03/24 04:23:52;;;;;;;4.63;3.50;;;3.90;53.10;;;;;;6321240;28;20189;-63
2022/03/24 04:26:53;;;;;;;5.73;3.77;;;3.90;53.20;;;;;;6282294;28;20243;-63
2022/03/24 04:29:54;;;;;;;5.13;3.70;;;3.80;53.30;;;;;;6250130;28;20240;-63
2022/03/24 04:32:55;;;;;;;6.37;3.83;;;3.80;54.00;;;;;;6256299;28;20196;-63
2022/03/24 04:35:58;;;;;;;8.53;3.40;;;3.80;54.70;;;;;;6263767;28;20250;-63
2022/03/24 04:38:59;;;;;;;5.10;4.00;;;3.80;54.50;;;;;;6274297;28;20207;-63
2022/03/24 04:42:00;;;;;;;7.40;3.83;;;3.70;54.50;;;;;;6281055;28;20204;-63
2022/03/24 04:45:01;;;;;;;4.23;3.67;;;3.70;54.60;;;;;;6274953;28;20197;-63
2022/03/24 04:48:03;;;;;;;5.20;4.23;;;3.60;54.90;;;;;;6278065;28;20255;-63
2022/03/24 04:51:06;;;;;;;6.03;3.43;;;3.60;55.30;;;;;;6275618;28;20224;-62
2022/03/24 04:54:07;;;;;;;7.80;3.83;;;3.60;55.20;;;;;;6222241;28;20194;-62
2022/03/24 04:57:07;;;;;;;8.87;3.90;;;3.60;54.90;;;;;;6260660;28;20188;-62
2022/03/24 05:00:10;;;;;;;6.30;4.03;;;3.60;55.00;;;;;;6242254;28;20196;-61
2022/03/24 05:03:11;;;;;;;7.97;4.23;;;3.50;55.10;;;;;;6262043;28;20213;-61
2022/03/24 05:06:13;;;;;;;6.17;3.63;;;3.60;55.20;;;;;;6275720;28;20190;-61
2022/03/24 05:09:14;;;;;;;4.20;3.17;;;3.60;54.80;;;;;;6218468;28;20256;-61
2022/03/24 05:12:16;;;;;;;4.50;2.87;;;3.60;55.00;;;;;;6255639;28;20194;-62
2022/03/24 05:15:17;;;;;;;4.60;3.60;;;3.80;54.80;;;;;;6217906;28;20254;-62
2022/03/24 05:18:17;;;;;;;5.47;3.50;;;3.80;54.40;;;;;;6224694;28;20208;-61
2022/03/24 05:21:19;;;;;;;4.77;3.10;;;3.70;54.80;;;;;;6292896;28;20199;-62
2022/03/24 05:24:20;;;;;;;4.37;3.87;;;3.80;54.80;;;;;;6280059;28;20200;-62
2022/03/24 05:27:21;;;;;;;5.77;3.90;;;3.90;54.00;;;;;;6268869;28;20237;-62
2022/03/24 05:30:22;;;;;;;6.40;4.60;;;3.90;54.30;;;;;;6278600;28;20196;-62
2022/03/24 05:33:23;;;;;;;5.60;3.87;;;3.80;54.80;;;;;;6283410;28;20254;-62
2022/03/24 05:36:24;;;;;;;4.87;3.30;;;3.80;54.90;;;;;;6257196;28;20197;-62
2022/03/24 05:39:25;;;;;;;7.37;3.77;;;3.80;54.90;;;;;;6261727;28;20205;-62
2022/03/24 05:42:27;;;;;;;6.67;3.57;;;3.90;54.70;;;;;;6260328;28;20201;-61
2022/03/24 05:45:28;;;;;;;10.00;4.63;;;3.90;54.70;;;;;;6290400;28;20264;-62
2022/03/24 05:48:28;;;;;;;4.90;3.50;;;3.90;54.80;;;;;;6273874;28;20212;-62
2022/03/24 05:51:55;;;;;;;7.37;3.20;;;3.90;54.90;;;;;;6262638;28;20268;-62
2022/03/24 05:54:56;;;;;;;6.17;3.80;;;3.90;54.90;;;;;;6282710;28;20214;-61
2022/03/24 05:57:57;;;;;;;4.47;3.07;;;4.00;55.30;;;;;;6279567;28;20206;-62
2022/03/24 06:00:58;;;;;;;5.50;3.67;;;4.10;54.90;;;;;;6260793;28;20205;-62
2022/03/24 06:04:00;;;;;;;4.63;3.67;;;4.20;54.40;;;;;;6281656;28;20193;-61
2022/03/24 06:07:01;;;;;;;5.03;3.57;;;4.30;54.40;;;;;;6278756;28;20198;-62
2022/03/24 06:10:02;;;;;;;6.80;3.27;;;4.30;54.80;;;;;;6281468;28;20220;-62
2022/03/24 06:13:03;;;;;;;27.40;12.10;;;4.30;53.90;;;;;;6277471;28;20193;-62
2022/03/24 06:16:04;;;;;;;31.87;17.80;;;4.60;52.90;;;;;;6275240;28;20198;-62
2022/03/24 06:19:05;;;;;;;40.97;24.43;;;4.70;52.30;;;;;;6267728;28;20193;-62
2022/03/24 06:22:07;;;;;;;36.87;18.57;;;4.80;51.40;;;;;;6292420;28;20223;-62
2022/03/24 06:25:08;;;;;;;8.90;4.93;;;4.90;51.00;;;;;;6287022;28;20198;-62
2022/03/24 06:28:09;;;;;;;6.57;4.47;;;5.10;49.10;;;;;;6277559;28;20248;-61
2022/03/24 06:31:12;;;;;;;4.87;3.70;;;5.30;49.80;;;;;;6271560;28;20288;-62
2022/03/24 06:34:13;;;;;;;6.40;3.33;;;5.30;50.20;;;;;;6284346;28;20192;-62
2022/03/24 06:37:14;;;;;;;3.63;2.60;;;5.30;49.90;;;;;;6286099;28;20216;-62
2022/03/24 06:40:16;;;;;;;6.90;2.73;;;5.40;49.10;;;;;;6273347;28;20221;-62
2022/03/24 06:43:17;;;;;;;4.10;3.00;;;5.60;48.70;;;;;;6250861;28;20289;-62
2022/03/24 06:46:18;;;;;;;5.90;2.83;;;5.60;48.80;;;;;;6270769;28;20240;-61
2022/03/24 06:49:19;;;;;;;4.80;3.00;;;5.70;48.10;;;;;;6267137;28;20235;-61
2022/03/24 06:52:20;;;;;;;3.80;3.00;;;5.70;48.80;;;;;;6268858;28;20284;-62
2022/03/24 06:55:21;;;;;;;4.23;2.67;;;5.80;48.40;;;;;;6251538;28;20197;-62
2022/03/24 06:58:22;;;;;;;5.57;3.27;;;5.80;48.10;;;;;;6285916;28;20193;-61
2022/03/24 07:01:23;;;;;;;7.97;3.00;;;5.90;48.80;;;;;;6286898;28;20229;-61
2022/03/24 07:04:24;;;;;;;4.33;2.80;;;6.00;46.70;;;;;;6269202;28;20233;-62
2022/03/24 07:07:27;;;;;;;6.20;3.70;;;6.20;46.50;;;;;;6284968;28;20352;-62
2022/03/24 07:10:28;;;;;;;4.77;3.00;;;6.20;47.20;;;;;;6261856;28;20201;-61
2022/03/24 07:13:30;;;;;;;3.40;2.93;;;6.30;47.30;;;;;;6251889;28;20192;-62
2022/03/24 07:16:31;;;;;;;5.53;3.00;;;6.40;46.50;;;;;;6269187;28;20194;-62
2022/03/24 07:19:32;;;;;;;4.40;2.67;;;6.60;45.80;;;;;;6273890;28;20286;-62
2022/03/24 07:22:34;;;;;;;5.67;3.20;;;6.60;46.20;;;;;;6262087;28;20217;-62
2022/03/24 07:25:40;;;;;;;3.93;2.83;;;6.80;44.90;;;;;;6269959;28;20206;-62
2022/03/24 07:28:41;;;;;;;5.30;2.93;;;6.90;44.90;;;;;;6278152;28;20269;-62
2022/03/24 07:31:42;;;;;;;5.63;3.27;;;7.00;45.10;;;;;;6265630;28;20224;-62
2022/03/24 07:34:43;;;;;;;8.70;3.50;;;7.10;44.20;;;;;;6295076;28;20170;-62
2022/03/24 07:37:46;;;;;;;4.83;3.00;;;7.30;43.80;;;;;;6283313;28;20204;-61
2022/03/24 07:40:47;;;;;;;5.37;3.53;;;7.50;43.80;;;;;;6286756;28;20203;-62
2022/03/24 07:43:48;;;;;;;5.13;2.60;;;7.70;43.30;;;;;;6251248;28;20193;-62
2022/03/24 07:46:50;;;;;;;5.20;2.97;;;7.80;42.10;;;;;;6285160;28;20265;-61
2022/03/24 07:49:50;;;;;;;3.77;2.77;;;8.00;42.40;;;;;;6285564;28;20244;-62
2022/03/24 07:52:51;;;;;;;9.67;2.93;;;8.30;41.80;;;;;;6289156;28;20280;-62
2022/03/24 07:55:54;;;;;;;4.47;2.67;;;8.60;41.10;;;;;;6273037;28;20190;-62
2022/03/24 07:58:56;;;;;;;5.53;3.10;;;8.90;39.60;;;;;;6257492;28;20226;-62
2022/03/24 08:01:57;;;;;;;3.90;2.67;;;9.10;39.50;;;;;;6289464;28;20223;-62
2022/03/24 08:04:58;;;;;;;5.93;3.20;;;9.20;39.30;;;;;;6275562;28;20205;-62
2022/03/24 08:07:58;;;;;;;4.77;2.53;;;9.40;38.10;;;;;;6272803;28;20213;-62
2022/03/24 08:10:59;;;;;;;3.47;2.80;;;9.60;37.40;;;;;;6289809;28;20196;-62
2022/03/24 08:14:00;;;;;;;4.20;2.90;;;9.80;37.20;;;;;;6288120;28;20189;-62
2022/03/24 08:17:01;;;;;;;4.00;2.50;;;9.90;36.90;;;;;;6288486;28;20231;-62
2022/03/24 08:20:03;;;;;;;5.37;2.13;;;10.10;36.90;;;;;;6289114;28;20201;-62
2022/03/24 08:23:06;;;;;;;8.50;2.80;;;10.30;36.40;;;;;;6290386;28;20200;-62
2022/03/24 08:26:07;;;;;;;5.63;2.43;;;10.40;36.00;;;;;;6273348;28;20787;-62
2022/03/24 08:29:07;;;;;;;5.33;2.77;;;10.60;35.30;;;;;;6254557;28;20221;-62
2022/03/24 08:32:12;;;;;;;4.03;3.30;;;10.40;35.90;;;;;;6254552;28;20189;-62
2022/03/24 08:35:13;;;;;;;5.27;3.03;;;10.70;35.40;;;;;;6256589;28;20214;-62
2022/03/24 08:38:13;;;;;;;7.50;3.03;;;11.00;34.80;;;;;;6238983;28;20211;-62
2022/03/24 08:41:14;;;;;;;3.47;2.40;;;11.10;34.40;;;;;;6255295;28;20301;-62
2022/03/24 08:44:15;;;;;;;4.30;2.80;;;11.30;34.50;;;;;;6256302;28;20189;-62
2022/03/24 08:47:16;;;;;;;6.00;3.23;;;11.30;34.20;;;;;;6256054;28;20194;-62
2022/03/24 08:50:17;;;;;;;4.07;2.93;;;11.50;33.80;;;;;;6271776;28;20255;-62
2022/03/24 08:53:18;;;;;;;5.93;2.67;;;11.60;33.10;;;;;;6253422;28;20198;-62
2022/03/24 08:56:19;;;;;;;4.50;2.73;;;11.80;33.00;;;;;;6255456;28;20178;-62
2022/03/24 08:59:20;;;;;;;9.07;2.93;;;11.80;33.30;;;;;;6239844;28;20219;-62
2022/03/24 09:02:21;;;;;;;3.63;2.70;;;11.90;32.80;;;;;;6255069;28;20316;-62
2022/03/24 09:05:23;;;;;;;3.93;2.60;;;12.10;32.70;;;;;;6269990;28;20189;-62
2022/03/24 09:08:24;;;;;;;3.47;2.50;;;12.20;32.50;;;;;;6270250;28;20223;-62
2022/03/24 09:11:25;;;;;;;3.93;2.43;;;12.30;31.80;;;;;;6253858;28;20194;-62
2022/03/24 09:14:26;;;;;;;7.07;3.13;;;12.50;31.70;;;;;;6253444;28;20194;-62
2022/03/24 09:17:27;;;;;;;6.30;2.90;;;12.60;32.00;;;;;;6246101;28;20190;-62
2022/03/24 09:20:28;;;;;;;6.67;2.70;;;12.60;32.00;;;;;;6237626;28;20210;-62
2022/03/24 09:23:29;;;;;;;6.77;2.80;;;12.80;31.50;;;;;;6255362;28;20200;-62
2022/03/24 09:26:29;;;;;;;3.37;2.43;;;12.80;32.10;;;;;;6270093;28;20233;-62
2022/03/24 09:29:30;;;;;;;3.70;2.40;;;13.00;30.80;;;;;;6253928;28;20320;-62
2022/03/24 09:32:31;;;;;;;3.60;2.70;;;13.10;30.90;;;;;;6254035;28;20207;-62
2022/03/24 09:35:34;;;;;;;4.23;2.77;;;13.30;30.40;;;;;;6208359;28;20258;-62
2022/03/24 09:38:34;;;;;;;3.07;2.47;;;13.20;30.40;;;;;;6253775;28;20227;-62
2022/03/24 09:41:37;;;;;;;3.63;2.40;;;13.50;29.20;;;;;;6254307;28;20198;-62
2022/03/24 09:44:39;;;;;;;3.93;2.13;;;13.60;28.80;;;;;;6218135;28;20288;-62
2022/03/24 09:47:41;;;;;;;7.87;2.73;;;13.80;29.10;;;;;;6254157;28;20214;-62
2022/03/24 09:50:47;;;;;;;6.27;2.63;;;13.80;30.80;;;;;;6251504;28;20243;-62
2022/03/24 09:53:48;;;;;;;6.50;3.77;;;14.40;27.20;;;;;;6262570;28;20222;-62
2022/03/24 09:56:49;;;;;;;7.07;3.57;;;14.40;28.90;;;;;;6263359;28;20195;-62
2022/03/24 09:59:51;;;;;;;4.60;3.57;;;14.60;28.30;;;;;;6282779;28;20198;-62
2022/03/24 10:03:18;;;;;;;4.90;3.30;;;14.90;28.00;;;;;;6253873;28;20232;-62
2022/03/24 10:06:19;;;;;;;7.07;3.30;;;15.00;27.00;;;;;;6269439;28;20194;-62
2022/03/24 10:09:37;;;;;;;5.93;3.37;;;15.10;26.70;;;;;;6252761;28;20220;-62
2022/03/24 10:12:38;;;;;;;6.13;3.13;;;15.00;27.10;;;;;;6270215;28;20186;-62
2022/03/24 10:15:39;;;;;;;5.73;2.83;;;15.00;26.50;;;;;;6254162;28;20190;-62
2022/03/24 10:18:57;;;;;;;5.80;3.43;;;15.10;26.80;;;;;;6236167;28;20282;-63
2022/03/24 10:21:58;;;;;;;3.93;3.03;;;15.50;25.60;;;;;;6268930;28;20199;-62
2022/03/24 10:24:59;;;;;;;4.97;3.23;;;15.60;25.30;;;;;;6212030;28;20237;-62
2022/03/24 10:28:08;;;;;;;4.33;2.73;;;15.70;24.90;;;;;;6269016;28;20353;-62
2022/03/24 10:31:09;;;;;;;4.80;2.30;;;15.80;24.80;;;;;;6267165;28;20198;-63
2022/03/24 10:34:11;;;;;;;2.43;2.20;;;15.80;23.90;;;;;;6252473;28;20193;-62
2022/03/24 10:37:20;;;;;;;4.77;2.50;;;15.90;23.50;;;;;;6252711;28;20188;-62
2022/03/24 10:40:21;;;;;;;3.40;2.40;;;16.20;23.80;;;;;;6253452;28;20276;-62
2022/03/24 10:43:23;;;;;;;3.40;2.20;;;16.20;24.00;;;;;;6248197;28;20212;-62
2022/03/24 10:46:25;;;;;;;9.17;3.03;;;16.70;22.40;;;;;;6233927;28;20230;-62
2022/03/24 10:49:27;;;;;;;3.00;2.37;;;16.80;23.40;;;;;;6264064;28;20213;-62
2022/03/24 10:52:33;;;;;;;3.53;2.20;;;16.80;22.80;;;;;;6251847;28;20414;-63
2022/03/24 10:55:40;;;;;;;4.83;2.50;;;17.10;22.40;;;;;;6253093;28;20278;-63
2022/03/24 10:58:55;;;;;;;4.97;2.47;;;16.90;22.80;;;;;;6253823;28;20238;-60
2022/03/24 11:01:56;;;;;;;7.20;2.33;;;16.90;23.50;;;;;;6253360;28;20190;-61
2022/03/24 11:05:02;;;;;;;2.73;2.40;;;17.00;24.60;;;;;;6252625;28;20232;-60
2022/03/24 11:08:05;;;;;;;3.40;2.13;;;17.00;22.60;;;;;;6237221;28;20238;-60
2022/03/24 11:11:12;;;;;;;2.87;2.57;;;17.30;23.10;;;;;;6236916;28;20240;-60
2022/03/24 11:14:15;;;;;;;2.87;2.33;;;17.30;24.30;;;;;;6252616;28;20193;-63
2022/03/24 11:17:17;;;;;;;3.23;2.40;;;17.30;23.50;;;;;;6253538;28;20190;-62
2022/03/24 11:20:21;;;;;;;2.60;2.20;;;17.30;21.90;;;;;;6252827;28;20293;-63
2022/03/24 11:23:22;;;;;;;4.00;2.00;;;17.60;21.40;;;;;;6261673;28;20194;-63
2022/03/24 11:26:24;;;;;;;4.13;2.23;;;17.70;20.40;;;;;;6249977;28;20234;-63
2022/03/24 11:29:25;;;;;;;4.13;2.10;;;17.80;22.30;;;;;;6249880;28;20215;-63
2022/03/24 11:32:27;;;;;;;2.53;1.70;;;17.80;21.10;;;;;;6256521;28;20300;-63
2022/03/24 11:35:28;;;;;;;3.27;1.50;;;18.10;21.00;;;;;;6257738;28;20198;-63
2022/03/24 11:38:28;;;;;;;2.70;1.83;;;18.10;20.20;;;;;;6224996;28;20196;-63
2022/03/24 11:41:49;;;;;;;2.10;1.50;;;18.60;19.80;;;;;;6224608;28;20201;-63
2022/03/24 11:44:58;;;;;;;2.03;1.73;;;18.70;19.30;;;;;;6274142;28;20186;-63
2022/03/24 11:48:11;;;;;;;3.77;2.07;;;18.80;20.80;;;;;;6257143;28;20223;-63
2022/03/24 11:51:14;;;;;;;2.53;1.90;;;19.10;19.20;;;;;;6271632;28;20236;-63
2022/03/24 11:54:39;;;;;;;2.67;2.03;;;19.20;18.20;;;;;;6240495;28;20179;-63
2022/03/24 11:57:41;;;;;;;3.00;1.80;;;19.20;19.70;;;;;;6271796;28;20281;-63
2022/03/24 12:00:42;;;;;;;4.23;1.83;;;19.30;18.20;;;;;;6256647;28;20195;-63
2022/03/24 12:03:43;;;;;;;2.60;1.57;;;19.40;18.10;;;;;;6256606;28;20201;-63
2022/03/24 12:06:52;;;;;;;6.00;2.43;;;19.60;18.70;;;;;;6273673;28;20191;-61
2022/03/24 12:09:56;;;;;;;3.00;1.60;;;20.40;19.50;;;;;;6256469;28;20206;-61
2022/03/24 12:13:19;;;;;;;2.00;1.40;;;20.70;17.80;;;;;;6289224;28;20201;-61
2022/03/24 12:16:23;;;;;;;1.60;1.30;;;20.80;16.30;;;;;;6255626;28;20209;-61
2022/03/24 12:19:35;;;;;;;1.53;1.43;;;20.70;17.60;;;;;;6255120;28;20228;-61
2022/03/24 12:22:37;;;;;;;6.37;1.50;;;21.80;17.40;;;;;;6272621;28;20198;-60
2022/03/24 12:25:38;;;;;;;2.23;1.63;;;25.10;15.20;;;;;;6238243;28;20272;-61
2022/03/24 12:28:42;;;;;;;7.43;2.53;;;28.40;14.50;;;;;;6297863;28;20236;-62
2022/03/24 12:32:07;;;;;;;5.30;1.97;;;30.50;12.70;;;;;;6274870;28;20190;-61
2022/03/24 12:35:29;;;;;;;6.03;2.13;;;31.30;10.80;;;;;;6249874;28;20199;-62
2022/03/24 12:38:33;;;;;;;3.90;1.60;;;30.80;11.90;;;;;;6250726;28;20191;-62
2022/03/24 12:41:34;;;;;;;4.20;2.20;;;30.70;12.40;;;;;;6233835;28;20183;-62
2022/03/24 12:44:56;;;;;;;4.73;1.80;;;31.00;11.20;;;;;;6261091;28;20205;-62
2022/03/24 12:48:05;;;;;;;2.53;2.03;;;31.50;11.40;;;;;;6261079;28;20242;-61
2022/03/24 12:51:24;;;;;;;3.57;1.97;;;31.20;11.00;;;;;;6284311;28;20204;-61
2022/03/24 12:54:25;;;;;;;2.57;2.03;;;30.50;12.00;;;;;;6296779;28;20247;-62
2022/03/24 12:57:27;;;;;;;2.00;1.37;;;29.80;10.90;;;;;;6273708;28;20188;-63
2022/03/24 13:00:33;;;;;;;1.67;1.57;;;29.40;11.00;;;;;;6265376;28;20202;-62
2022/03/24 13:03:34;;;;;;;6.17;1.37;;;29.80;10.60;;;;;;6231886;28;20175;-62
2022/03/24 13:06:37;;;;;;;5.97;2.77;;;30.00;11.40;;;;;;6215703;28;20220;-62
2022/03/24 13:09:38;;;;;;;2.70;1.87;;;30.70;11.90;;;;;;6250492;28;20304;-62
2022/03/24 13:12:41;;;;;;;6.17;2.10;;;32.10;10.40;;;;;;6241066;28;20181;-62
2022/03/24 13:15:43;;;;;;;3.90;2.20;;;34.10;9.70;;;;;;6258077;28;20186;-62
2022/03/24 13:18:54;;;;;;;3.40;1.77;;;35.90;9.30;;;;;;6241109;28;20193;-62
2022/03/24 13:21:55;;;;;;;6.00;1.93;;;38.30;7.60;;;;;;6246102;28;20218;-62
2022/03/24 13:25:16;;;;;;;3.43;1.80;;;40.20;7.30;;;;;;6294469;28;20288;-62
2022/03/24 13:28:19;;;;;;;5.53;2.00;;;42.80;6.60;;;;;;6259175;28;20242;-62
2022/03/24 13:31:19;;;;;;;4.20;2.40;;;44.00;6.10;;;;;;6257730;28;20190;-62
2022/03/24 13:34:20;;;;;;;2.63;2.03;;;44.90;6.10;;;;;;6237933;28;20205;-62
2022/03/24 13:37:23;;;;;;;3.00;2.33;;;45.60;6.30;;;;;;6250358;28;20191;-62
2022/03/24 13:40:26;;;;;;;2.47;1.47;;;46.60;5.50;;;;;;6272564;28;20221;-62
2022/03/24 13:43:27;;;;;;;2.63;1.90;;;47.10;5.60;;;;;;6257317;28;20216;-62
2022/03/24 13:46:28;;;;;;;3.77;2.00;;;47.50;5.50;;;;;;6223924;28;20189;-62
2022/03/24 13:49:29;;;;;;;5.37;2.10;;;46.60;5.70;;;;;;6207494;28;20284;-62
2022/03/24 13:52:34;;;;;;;5.83;2.00;;;46.40;5.50;;;;;;6252148;28;20212;-62
2022/03/24 13:55:35;;;;;;;4.13;2.23;;;46.40;5.70;;;;;;6277426;28;20200;-61
2022/03/24 13:58:38;;;;;;;2.20;2.00;;;46.20;5.50;;;;;;6270412;28;20193;-60
2022/03/24 14:01:39;;;;;;;2.37;2.07;;;47.10;5.90;;;;;;6289990;28;20272;-61
2022/03/24 14:04:39;;;;;;;3.07;2.00;;;47.60;5.40;;;;;;6218219;28;20200;-61
2022/03/24 14:08:00;;;;;;;3.40;1.70;;;47.10;5.70;;;;;;6229735;28;20181;-61
2022/03/24 14:11:00;;;;;;;3.23;1.93;;;47.70;5.00;;;;;;6263106;28;20193;-61
2022/03/24 14:14:11;;;;;;;2.77;2.30;;;48.40;5.20;;;;;;6290586;28;20178;-61
2022/03/24 14:17:12;;;;;;;3.47;2.67;;;46.70;5.50;;;;;;6256613;28;20186;-61
2022/03/24 14:20:15;;;;;;;3.37;2.40;;;47.40;6.00;;;;;;6256880;28;20228;-61
2022/03/24 14:23:24;;;;;;;2.67;2.27;;;47.90;5.30;;;;;;6256505;28;20206;-61
2022/03/24 14:26:25;;;;;;;3.13;2.07;;;47.80;5.00;;;;;;6287662;28;20261;-59
2022/03/24 14:29:26;;;;;;;1.70;1.60;;;47.20;5.50;;;;;;6289960;28;20219;-59
2022/03/24 14:32:27;;;;;;;4.00;1.87;;;47.90;5.00;;;;;;6262482;28;20276;-58
2022/03/24 14:35:28;;;;;;;3.37;1.73;;;47.30;5.10;;;;;;6264573;28;20185;-59
2022/03/24 14:38:29;;;;;;;2.03;1.50;;;47.30;5.30;;;;;;6251642;28;20267;-58
2022/03/24 14:41:30;;;;;;;2.33;1.80;;;46.20;5.20;;;;;;6252657;28;20201;-58
2022/03/24 14:44:32;;;;;;;1.90;1.70;;;46.40;5.50;;;;;;6277820;28;20462;-61
2022/03/24 14:47:33;;;;;;;2.95;2.08;;;45.20;5.60;;;;;;6268758;28;20745;-58
2022/03/24 14:50:34;;;;;;;3.63;2.00;;;45.80;5.30;;;;;;6268395;28;20220;-58
2022/03/24 14:53:35;;;;;;;2.87;1.90;;;46.20;5.30;;;;;;6246351;28;20276;-58
2022/03/24 14:56:37;;;;;;;11.57;1.80;;;44.50;5.40;;;;;;6269966;28;20199;-57
2022/03/24 14:59:38;;;;;;;1.70;1.50;;;45.30;5.60;;;;;;6260206;28;20193;-58
2022/03/24 15:02:39;;;;;;;2.40;1.30;;;46.70;4.80;;;;;;6240025;28;20197;-57
2022/03/24 15:05:40;;;;;;;2.60;1.97;;;45.90;5.20;;;;;;6240307;28;20241;-58
2022/03/24 15:08:40;;;;;;;2.07;1.87;;;45.50;5.10;;;;;;6257797;28;20205;-56
2022/03/24 15:11:41;;;;;;;1.53;1.43;;;44.40;5.40;;;;;;6259571;28;20198;-57
2022/03/24 15:18:01;;;;;;;4.60;1.67;;;45.00;5.20;;;;;;6258144;28;20534;-57
2022/03/24 15:21:03;;;;;;;3.77;1.70;;;45.50;5.30;;;;;;6294251;28;20245;-57
2022/03/24 15:24:04;;;;;;;2.60;1.73;;;42.70;5.60;;;;;;6281250;28;20248;-58
2022/03/24 15:27:05;;;;;;;5.77;1.90;;;38.30;6.70;;;;;;6245006;28;20241;-58
2022/03/24 15:30:07;;;;;;;2.77;1.40;;;35.00;8.10;;;;;;6275332;28;20214;-53
2022/03/24 15:33:09;;;;;;;2.50;1.70;;;32.20;9.40;;;;;;6254045;28;20174;-57
2022/03/24 15:36:10;;;;;;;3.47;1.60;;;30.90;10.20;;;;;;6327920;28;20217;-58
2022/03/24 15:39:11;;;;;;;2.03;1.80;;;29.80;10.90;;;;;;6312816;28;20221;-58
2022/03/24 15:42:12;;;;;;;2.20;1.70;;;29.30;11.70;;;;;;6286372;28;20185;-57
2022/03/24 15:45:13;;;;;;;3.53;1.83;;;28.50;11.90;;;;;;6298263;28;20215;-58
2022/03/24 15:48:14;;;;;;;6.43;2.20;;;28.20;11.40;;;;;;6291238;28;20248;-57
2022/03/24 15:51:15;;;;;;;3.00;2.00;;;27.70;12.40;;;;;;6275428;28;20199;-56
2022/03/24 15:54:16;;;;;;;5.93;2.00;;;26.90;13.60;;;;;;6310279;28;20190;-56
2022/03/24 15:57:17;;;;;;;4.10;2.20;;;26.60;14.80;;;;;;6260561;28;20221;-57
2022/03/24 16:00:20;;;;;;;2.13;1.90;;;26.40;15.30;;;;;;6293087;28;20271;-56
2022/03/24 16:03:20;;;;;;;5.53;2.20;;;26.20;15.30;;;;;;6276272;28;20198;-55